createdAt,value
2022-09-13T08:23:25.275Z,15012.00
2022-09-13T08:28:27.655Z,12232.00
2022-09-13T08:35:12.045Z,10156.00
2022-09-13T08:40:12.200Z,14888.00
2022-09-13T08:45:11.944Z,16416.00
2022-09-13T08:50:11.820Z,14544.00
2022-09-13T08:55:11.888Z,13368.00
2022-09-13T09:01:29.290Z,14604.00
2022-09-13T09:06:29.031Z,13320.00
2022-09-13T09:11:29.159Z,13884.00
2022-09-13T09:16:29.008Z,11532.00
2022-09-13T09:21:36.808Z,12724.00
2022-09-13T09:26:28.773Z,11616.00
2022-09-13T09:31:28.977Z,13404.00
2022-09-13T09:36:28.646Z,14304.00
2022-09-13T09:41:28.834Z,12932.00
2022-09-13T09:46:28.515Z,13100.00
2022-09-13T09:51:31.460Z,10584.00
2022-09-13T09:56:28.300Z,11464.00
2022-09-13T10:01:28.330Z,13716.00
2022-09-13T10:06:28.274Z,13040.00
2022-09-13T10:11:28.249Z,12292.00
2022-09-13T10:16:28.082Z,13212.00
2022-09-13T10:21:28.241Z,10756.00
2022-09-13T10:26:27.906Z,13444.00
2022-09-13T10:31:27.873Z,13428.00
2022-09-13T10:36:50.680Z,12260.00
2022-09-13T10:41:28.730Z,12960.00
2022-09-13T10:46:27.636Z,9296.00
2022-09-13T10:51:30.593Z,5652.00
2022-09-13T10:56:27.525Z,10632.00
2022-09-13T11:01:27.553Z,14608.00
2022-09-13T11:06:27.376Z,15420.00
2022-09-13T11:11:27.335Z,16704.00
2022-09-13T11:16:27.310Z,16096.00
2022-09-13T11:21:27.223Z,15552.00
2022-09-13T11:26:27.174Z,15332.00
2022-09-13T11:31:27.198Z,15076.00
2022-09-13T11:36:27.068Z,15160.00
2022-09-13T11:41:26.986Z,14744.00
2022-09-13T11:46:26.886Z,11548.00
2022-09-13T11:51:36.684Z,6572.00
2022-09-13T11:56:26.739Z,5352.00
2022-09-13T12:01:26.734Z,4920.00
2022-09-13T12:06:26.608Z,4816.00
2022-09-13T12:11:26.624Z,4696.00
2022-09-13T12:16:26.493Z,6112.00
2022-09-13T12:21:26.434Z,5656.00
2022-09-13T12:27:54.091Z,4720.00
2022-09-13T12:32:58.628Z,4740.00
2022-09-13T12:37:55.210Z,5292.00
2022-09-13T12:42:53.890Z,5284.00
2022-09-13T12:47:53.859Z,4616.00
2022-09-13T12:52:53.799Z,4720.00
2022-09-13T12:57:53.818Z,4764.00
2022-09-13T13:02:54.916Z,4976.00
2022-09-13T13:07:53.609Z,5916.00
2022-09-13T13:12:53.471Z,7144.00
2022-09-13T13:17:56.488Z,7496.00
2022-09-13T13:22:53.338Z,7964.00
2022-09-13T13:28:01.098Z,8608.00
2022-09-13T13:33:02.761Z,8604.00
2022-09-13T13:37:53.170Z,8756.00
2022-09-13T13:42:53.059Z,9368.00
2022-09-13T13:47:53.149Z,8620.00
2022-09-13T13:53:00.906Z,9024.00
2022-09-13T13:57:52.943Z,9536.00
2022-09-13T14:02:53.231Z,10404.00
2022-09-13T14:07:52.755Z,9912.00
2022-09-13T14:12:53.148Z,10336.00
2022-09-13T14:17:55.789Z,10388.00
2022-09-13T14:22:52.799Z,10712.00
2022-09-13T14:27:52.943Z,10960.00
2022-09-13T14:32:52.428Z,8840.00
2022-09-13T14:37:52.384Z,8676.00
2022-09-13T14:42:52.314Z,8424.00
2022-09-13T14:47:52.284Z,8060.00
2022-09-13T14:52:52.169Z,8444.00
2022-09-13T14:57:52.313Z,9588.00
2022-09-13T15:02:52.036Z,10628.00
2022-09-13T15:07:52.159Z,9036.00
2022-09-13T15:12:51.911Z,9004.00
2022-09-13T15:17:54.881Z,8808.00
2022-09-13T15:22:51.806Z,7892.00
2022-09-13T15:27:51.818Z,7376.00
2022-09-13T15:32:51.974Z,6824.00
2022-09-13T15:37:51.688Z,6532.00
2022-09-13T15:42:51.791Z,5444.00
2022-09-13T15:47:51.494Z,4768.00
2022-09-13T15:52:51.385Z,4512.00
2022-09-13T15:57:51.460Z,3444.00
2022-09-13T16:02:51.261Z,2428.00
2022-09-13T16:07:51.324Z,1928.00
2022-09-13T16:12:51.153Z,1728.00
2022-09-13T16:17:54.129Z,1620.00
2022-09-13T16:22:51.038Z,2084.00
2022-09-13T16:27:50.964Z,2300.00
2022-09-13T16:32:50.843Z,2704.00
2022-09-13T16:37:50.879Z,2336.00
2022-09-13T16:42:50.814Z,1768.00
2022-09-13T16:47:50.749Z,1632.00
2022-09-13T16:52:50.604Z,1480.00
2022-09-13T16:57:50.604Z,1176.00
2022-09-13T17:02:50.776Z,732.00
2022-09-13T17:07:50.521Z,432.00
2022-09-13T17:12:50.365Z,360.00
2022-09-13T17:17:53.414Z,292.00
2022-09-13T17:22:50.228Z,152.00
2022-09-13T17:27:50.364Z,88.00
2022-09-13T17:32:50.068Z,72.00
2022-09-13T17:37:50.221Z,56.00
2022-09-13T17:44:00.644Z,20.00
2022-09-13T17:49:00.479Z,12.00
2022-09-13T17:54:00.488Z,8.00
2022-09-13T17:59:00.336Z,4.00
2022-09-13T18:04:00.330Z,0.00
2022-09-13T18:09:00.236Z,0.00
2022-09-13T18:14:00.248Z,0.00
2022-09-13T18:19:00.106Z,0.00
2022-09-13T18:24:00.202Z,0.00
2022-09-13T18:28:59.963Z,0.00
2022-09-13T18:34:02.941Z,0.00
2022-09-13T18:38:59.861Z,0.00
2022-09-13T18:43:59.971Z,0.00
2022-09-13T18:48:59.714Z,0.00
2022-09-13T18:53:59.714Z,0.00
2022-09-13T18:58:59.613Z,0.00
2022-09-13T19:03:59.602Z,0.00
2022-09-13T19:08:59.439Z,0.00
2022-09-13T19:13:59.479Z,0.00
2022-09-13T19:18:59.341Z,0.00
2022-09-13T19:24:01.507Z,0.00
2022-09-13T19:28:59.178Z,0.00
2022-09-13T19:34:02.213Z,0.00
2022-09-13T19:38:59.103Z,0.00
2022-09-13T19:44:00.999Z,0.00
2022-09-13T19:49:00.133Z,0.00
2022-09-13T19:54:03.245Z,0.00
2022-09-13T19:58:58.829Z,0.00
2022-09-13T20:03:59.081Z,0.00
2022-09-13T20:08:58.663Z,0.00
2022-09-13T20:14:00.070Z,0.00
2022-09-13T20:18:58.556Z,0.00
2022-09-13T20:23:59.784Z,0.00
2022-09-13T20:28:58.393Z,0.00
2022-09-13T20:34:01.365Z,0.00
2022-09-13T20:39:02.982Z,0.00
2022-09-13T20:43:59.959Z,0.00
2022-09-13T20:48:58.295Z,0.00
2022-09-13T20:53:58.110Z,0.00
2022-09-13T20:58:58.552Z,0.00
2022-09-13T21:03:58.019Z,0.00
2022-09-13T21:08:58.081Z,0.00
2022-09-13T21:14:02.590Z,0.00
2022-09-13T21:18:58.477Z,0.00
2022-09-13T21:23:59.414Z,0.00
2022-09-13T21:28:57.843Z,0.00
2022-09-13T21:34:01.712Z,0.00
2022-09-13T21:38:57.475Z,0.00
2022-09-13T21:43:57.509Z,0.00
2022-09-13T21:48:57.369Z,0.00
2022-09-13T21:54:04.583Z,0.00
2022-09-13T21:59:04.848Z,0.00
2022-09-13T22:03:57.608Z,0.00
2022-09-13T22:09:18.116Z,0.00
2022-09-13T22:13:57.026Z,0.00
2022-09-13T22:18:56.997Z,0.00
2022-09-13T22:23:57.093Z,0.00
2022-09-13T22:28:56.855Z,0.00
2022-09-13T22:33:59.863Z,0.00
2022-09-13T22:38:56.680Z,0.00
2022-09-13T22:43:57.353Z,0.00
2022-09-13T22:48:56.787Z,0.00
2022-09-13T22:53:56.535Z,0.00
2022-09-13T22:58:56.484Z,0.00
2022-09-13T23:03:56.741Z,0.00
2022-09-13T23:08:56.290Z,0.00
2022-09-13T23:13:56.306Z,0.00
2022-09-13T23:18:56.189Z,0.00
2022-09-13T23:23:56.167Z,0.00
2022-09-13T23:28:56.022Z,0.00
2022-09-13T23:33:59.056Z,0.00
2022-09-13T23:38:55.895Z,0.00
2022-09-13T23:43:56.109Z,0.00
2022-09-13T23:48:55.795Z,0.00
2022-09-13T23:53:56.462Z,0.00
2022-09-13T23:58:55.635Z,0.00
